sensor_id;sensor_type;location;lat;lon;timestamp;pressure;altitude;pressure_sealevel;temperature;humidity
3294;BME280;1659;51.470;6.770;2023-01-16T00:01:04;99591.19;;;5.16;88.64
3294;BME280;1659;51.470;6.770;2023-01-16T00:03:31;99605.13;;;5.18;88.95
3294;BME280;1659;51.470;6.770;2023-01-16T00:05:57;99589.31;;;5.22;88.42
3294;BME280;1659;51.470;6.770;2023-01-16T00:08:25;99600.56;;;5.29;88.48
3294;BME280;1659;51.470;6.770;2023-01-16T00:10:52;99581.31;;;5.33;88.33
3294;BME280;1659;51.470;6.770;2023-01-16T00:13:18;99576.00;;;5.38;88.00
3294;BME280;1659;51.470;6.770;2023-01-16T00:15:46;99576.81;;;5.40;87.54
3294;BME280;1659;51.470;6.770;2023-01-16T00:18:13;99571.50;;;5.44;87.28
3294;BME280;1659;51.470;6.770;2023-01-16T00:20:39;99561.03;;;5.44;87.44
3294;BME280;1659;51.470;6.770;2023-01-16T00:23:06;99552.31;;;5.45;87.05
3294;BME280;1659;51.470;6.770;2023-01-16T00:25:38;99550.56;;;5.44;86.78
3294;BME280;1659;51.470;6.770;2023-01-16T00:28:05;99555.88;;;5.40;86.77
3294;BME280;1659;51.470;6.770;2023-01-16T00:30:31;99541.09;;;5.37;86.73
3294;BME280;1659;51.470;6.770;2023-01-16T00:32:58;99558.59;;;5.35;86.25
3294;BME280;1659;51.470;6.770;2023-01-16T00:35:24;99532.44;;;5.32;86.80
3294;BME280;1659;51.470;6.770;2023-01-16T00:37:51;99540.28;;;5.32;86.52
3294;BME280;1659;51.470;6.770;2023-01-16T00:40:18;99532.38;;;5.35;86.61
3294;BME280;1659;51.470;6.770;2023-01-16T00:42:46;99537.59;;;5.38;86.32
3294;BME280;1659;51.470;6.770;2023-01-16T00:45:13;99527.09;;;5.38;86.46
3294;BME280;1659;51.470;6.770;2023-01-16T00:47:39;99527.97;;;5.39;86.54
3294;BME280;1659;51.470;6.770;2023-01-16T00:50:06;99523.56;;;5.41;85.94
3294;BME280;1659;51.470;6.770;2023-01-16T00:52:33;99534.00;;;5.42;85.97
3294;BME280;1659;51.470;6.770;2023-01-16T00:55:00;99522.59;;;5.45;85.46
3294;BME280;1659;51.470;6.770;2023-01-16T00:57:27;99511.22;;;5.46;85.79
3294;BME280;1659;51.470;6.770;2023-01-16T00:59:55;99515.63;;;5.45;85.59
3294;BME280;1659;51.470;6.770;2023-01-16T01:02:21;99509.50;;;5.45;85.22
3294;BME280;1659;51.470;6.770;2023-01-16T01:04:48;99500.81;;;5.43;86.00
3294;BME280;1659;51.470;6.770;2023-01-16T01:07:14;99512.25;;;5.37;85.72
3294;BME280;1659;51.470;6.770;2023-01-16T01:09:41;99485.28;;;5.32;85.95
3294;BME280;1659;51.470;6.770;2023-01-16T01:12:07;99492.38;;;5.25;85.59
3294;BME280;1659;51.470;6.770;2023-01-16T01:14:34;99494.22;;;5.20;86.10
3294;BME280;1659;51.470;6.770;2023-01-16T01:17:02;99480.31;;;5.17;85.48
3294;BME280;1659;51.470;6.770;2023-01-16T01:19:28;99485.59;;;5.14;86.16
3294;BME280;1659;51.470;6.770;2023-01-16T01:21:55;99477.84;;;5.09;86.03
3294;BME280;1659;51.470;6.770;2023-01-16T01:24:21;99481.34;;;5.06;85.91
3294;BME280;1659;51.470;6.770;2023-01-16T01:26:48;99480.50;;;5.06;86.40
3294;BME280;1659;51.470;6.770;2023-01-16T01:29:14;99479.59;;;5.08;86.46
3294;BME280;1659;51.470;6.770;2023-01-16T01:31:41;99471.75;;;5.08;86.40
3294;BME280;1659;51.470;6.770;2023-01-16T01:34:08;99472.59;;;5.10;86.23
3294;BME280;1659;51.470;6.770;2023-01-16T01:36:35;99463.00;;;5.09;86.57
3294;BME280;1659;51.470;6.770;2023-01-16T01:39:02;99464.78;;;5.07;86.04
3294;BME280;1659;51.470;6.770;2023-01-16T01:41:28;99453.50;;;5.04;85.99
3294;BME280;1659;51.470;6.770;2023-01-16T01:43:55;99447.44;;;5.00;86.13
3294;BME280;1659;51.470;6.770;2023-01-16T01:46:25;99447.50;;;4.97;86.83
3294;BME280;1659;51.470;6.770;2023-01-16T01:48:54;99437.03;;;4.96;86.74
3294;BME280;1659;51.470;6.770;2023-01-16T01:51:27;99449.31;;;4.92;86.35
3294;BME280;1659;51.470;6.770;2023-01-16T01:53:57;99445.06;;;4.86;86.40
3294;BME280;1659;51.470;6.770;2023-01-16T01:56:27;99442.50;;;4.82;86.92
3294;BME280;1659;51.470;6.770;2023-01-16T01:58:58;99431.22;;;4.78;87.38
3294;BME280;1659;51.470;6.770;2023-01-16T02:01:27;99426.91;;;4.77;86.87
3294;BME280;1659;51.470;6.770;2023-01-16T02:03:57;99423.41;;;4.77;86.85
3294;BME280;1659;51.470;6.770;2023-01-16T02:06:32;99415.63;;;4.73;87.30
3294;BME280;1659;51.470;6.770;2023-01-16T02:09:01;99416.50;;;4.72;87.13
3294;BME280;1659;51.470;6.770;2023-01-16T02:11:31;99415.66;;;4.72;87.04
3294;BME280;1659;51.470;6.770;2023-01-16T02:14:04;99403.41;;;4.72;87.32
3294;BME280;1659;51.470;6.770;2023-01-16T02:16:31;99392.88;;;4.77;87.79
3294;BME280;1659;51.470;6.770;2023-01-16T02:19:30;99391.06;;;4.81;87.72
3294;BME280;1659;51.470;6.770;2023-01-16T02:25:19;99384.78;;;4.91;87.42
3294;BME280;1659;51.470;6.770;2023-01-16T02:28:06;99372.53;;;4.93;87.43
3294;BME280;1659;51.470;6.770;2023-01-16T02:31:02;99370.75;;;4.95;87.60
3294;BME280;1659;51.470;6.770;2023-01-16T02:33:42;99363.72;;;4.97;87.56
3294;BME280;1659;51.470;6.770;2023-01-16T02:36:16;99362.88;;;4.97;87.64
3294;BME280;1659;51.470;6.770;2023-01-16T02:38:53;99355.88;;;4.97;87.58
3294;BME280;1659;51.470;6.770;2023-01-16T02:41:27;99343.66;;;4.96;87.65
3294;BME280;1659;51.470;6.770;2023-01-16T02:44:01;99343.72;;;4.95;87.39
3294;BME280;1659;51.470;6.770;2023-01-16T02:46:35;99337.53;;;4.97;87.69
3294;BME280;1659;51.470;6.770;2023-01-16T02:49:09;99326.19;;;5.00;87.44
3294;BME280;1659;51.470;6.770;2023-01-16T02:51:42;99320.88;;;5.01;87.88
3294;BME280;1659;51.470;6.770;2023-01-16T02:54:14;99317.38;;;5.02;87.71
3294;BME280;1659;51.470;6.770;2023-01-16T02:56:45;99304.28;;;5.02;87.61
3294;BME280;1659;51.470;6.770;2023-01-16T02:59:15;99303.41;;;5.03;87.71
3294;BME280;1659;51.470;6.770;2023-01-16T03:01:46;99302.50;;;5.04;87.62
3294;BME280;1659;51.470;6.770;2023-01-16T03:04:39;99291.13;;;5.07;87.94
3294;BME280;1659;51.470;6.770;2023-01-16T03:07:28;99282.34;;;5.08;87.83
3294;BME280;1659;51.470;6.770;2023-01-16T03:10:11;99270.88;;;5.14;87.48
3294;BME280;1659;51.470;6.770;2023-01-16T03:12:49;99260.34;;;5.17;87.49
3294;BME280;1659;51.470;6.770;2023-01-16T03:15:26;99256.84;;;5.19;87.16
3294;BME280;1659;51.470;6.770;2023-01-16T03:18:04;99255.03;;;5.21;87.31
3294;BME280;1659;51.470;6.770;2023-01-16T03:20:40;99253.28;;;5.22;87.25
3294;BME280;1659;51.470;6.770;2023-01-16T03:23:15;99240.19;;;5.22;87.27
3294;BME280;1659;51.470;6.770;2023-01-16T03:25:50;99233.25;;;5.21;86.91
3294;BME280;1659;51.470;6.770;2023-01-16T03:28:22;99230.66;;;5.19;86.52
3294;BME280;1659;51.470;6.770;2023-01-16T03:30:59;99220.22;;;5.16;86.75
3294;BME280;1659;51.470;6.770;2023-01-16T03:33:37;99209.84;;;5.11;86.37
3294;BME280;1659;51.470;6.770;2023-01-16T03:36:10;99198.59;;;5.08;85.92
3294;BME280;1659;51.470;6.770;2023-01-16T03:38:40;99203.06;;;5.03;86.21
3294;BME280;1659;51.470;6.770;2023-01-16T03:41:11;99203.16;;;4.98;86.76
3294;BME280;1659;51.470;6.770;2023-01-16T03:43:39;99202.41;;;4.93;86.58
3294;BME280;1659;51.470;6.770;2023-01-16T03:46:08;99186.78;;;4.88;86.83
3294;BME280;1659;51.470;6.770;2023-01-16T03:48:41;99190.34;;;4.86;86.99
3294;BME280;1659;51.470;6.770;2023-01-16T03:51:13;99179.09;;;4.81;86.86
3294;BME280;1659;51.470;6.770;2023-01-16T03:53:45;99179.13;;;4.79;87.38
3294;BME280;1659;51.470;6.770;2023-01-16T03:56:15;99167.75;;;4.80;87.55
3294;BME280;1659;51.470;6.770;2023-01-16T03:58:45;99152.94;;;4.81;87.55
3294;BME280;1659;51.470;6.770;2023-01-16T04:01:21;99151.13;;;4.84;87.16
3294;BME280;1659;51.470;6.770;2023-01-16T04:03:56;99148.47;;;4.86;87.92
3294;BME280;1659;51.470;6.770;2023-01-16T04:06:30;99145.78;;;4.87;87.49
3294;BME280;1659;51.470;6.770;2023-01-16T04:08:59;99149.25;;;4.89;87.44
3294;BME280;1659;51.470;6.770;2023-01-16T04:11:28;99146.63;;;4.91;87.44
3294;BME280;1659;51.470;6.770;2023-01-16T04:13:59;99137.00;;;4.91;87.55
3294;BME280;1659;51.470;6.770;2023-01-16T04:16:27;99120.50;;;4.88;87.55
3294;BME280;1659;51.470;6.770;2023-01-16T04:18:57;99108.38;;;4.84;87.67
3294;BME280;1659;51.470;6.770;2023-01-16T04:21:25;99101.47;;;4.80;87.48
3294;BME280;1659;51.470;6.770;2023-01-16T04:23:55;99095.44;;;4.78;87.39
3294;BME280;1659;51.470;6.770;2023-01-16T04:26:22;99078.03;;;4.75;87.54
3294;BME280;1659;51.470;6.770;2023-01-16T04:28:49;99066.78;;;4.71;87.58
3294;BME280;1659;51.470;6.770;2023-01-16T04:31:20;99063.31;;;4.69;87.42
3294;BME280;1659;51.470;6.770;2023-01-16T04:33:47;99053.00;;;4.65;88.04
3294;BME280;1659;51.470;6.770;2023-01-16T04:36:15;99048.72;;;4.59;88.02
3294;BME280;1659;51.470;6.770;2023-01-16T04:38:41;99038.34;;;4.56;87.66
3294;BME280;1659;51.470;6.770;2023-01-16T04:41:08;99026.19;;;4.53;88.12
3294;BME280;1659;51.470;6.770;2023-01-16T04:43:34;99026.22;;;4.52;87.83
3294;BME280;1659;51.470;6.770;2023-01-16T04:46:01;99009.69;;;4.51;87.73
3294;BME280;1659;51.470;6.770;2023-01-16T04:48:27;99009.72;;;4.48;87.65
3294;BME280;1659;51.470;6.770;2023-01-16T04:50:54;99006.28;;;4.48;87.97
3294;BME280;1659;51.470;6.770;2023-01-16T04:53:22;98999.25;;;4.50;87.69
3294;BME280;1659;51.470;6.770;2023-01-16T04:55:48;98992.28;;;4.49;87.82
3294;BME280;1659;51.470;6.770;2023-01-16T04:58:15;98990.56;;;4.48;88.25
3294;BME280;1659;51.470;6.770;2023-01-16T05:00:41;98974.84;;;4.49;87.96
3294;BME280;1659;51.470;6.770;2023-01-16T05:03:08;98966.91;;;4.52;88.40
3294;BME280;1659;51.470;6.770;2023-01-16T05:05:34;98956.38;;;4.56;87.91
3294;BME280;1659;51.470;6.770;2023-01-16T05:08:01;98945.97;;;4.54;88.14
3294;BME280;1659;51.470;6.770;2023-01-16T05:10:44;98944.25;;;4.53;87.85
3294;BME280;1659;51.470;6.770;2023-01-16T05:13:10;98940.72;;;4.54;87.95
3294;BME280;1659;51.470;6.770;2023-01-16T05:15:37;98931.19;;;4.53;87.97
3294;BME280;1659;51.470;6.770;2023-01-16T05:18:03;98929.44;;;4.52;88.10
3294;BME280;1659;51.470;6.770;2023-01-16T05:20:30;98914.59;;;4.52;87.94
3294;BME280;1659;51.470;6.770;2023-01-16T05:22:57;98905.00;;;4.54;87.95
3294;BME280;1659;51.470;6.770;2023-01-16T05:25:23;98909.28;;;4.57;88.03
3294;BME280;1659;51.470;6.770;2023-01-16T05:27:51;98906.56;;;4.62;87.70
3294;BME280;1659;51.470;6.770;2023-01-16T05:30:18;98893.44;;;4.63;88.00
3294;BME280;1659;51.470;6.770;2023-01-16T05:32:44;98871.63;;;4.63;87.87
3294;BME280;1659;51.470;6.770;2023-01-16T05:35:11;98875.16;;;4.62;87.88
3294;BME280;1659;51.470;6.770;2023-01-16T05:37:38;98864.66;;;4.63;87.69
3294;BME280;1659;51.470;6.770;2023-01-16T05:40:05;98869.88;;;4.65;87.92
3294;BME280;1659;51.470;6.770;2023-01-16T05:42:32;98863.69;;;4.67;87.93
3294;BME280;1659;51.470;6.770;2023-01-16T05:44:59;98853.19;;;4.69;88.17
3294;BME280;1659;51.470;6.770;2023-01-16T05:47:26;98853.06;;;4.73;87.97
3294;BME280;1659;51.470;6.770;2023-01-16T05:49:52;98841.63;;;4.78;87.99
3294;BME280;1659;51.470;6.770;2023-01-16T05:52:23;98837.19;;;4.80;88.23
3294;BME280;1659;51.470;6.770;2023-01-16T05:54:49;98819.66;;;4.83;88.14
3294;BME280;1659;51.470;6.770;2023-01-16T05:57:16;98816.13;;;4.86;88.10
3294;BME280;1659;51.470;6.770;2023-01-16T05:59:43;98800.31;;;4.89;87.73
3294;BME280;1659;51.470;6.770;2023-01-16T06:02:12;98796.69;;;4.95;87.83
3294;BME280;1659;51.470;6.770;2023-01-16T06:04:39;98788.78;;;4.96;87.92
3294;BME280;1659;51.470;6.770;2023-01-16T06:07:05;98785.22;;;4.99;87.98
3294;BME280;1659;51.470;6.770;2023-01-16T06:09:32;98779.94;;;5.00;87.54
3294;BME280;1659;51.470;6.770;2023-01-16T06:11:58;98769.41;;;5.03;87.05
3294;BME280;1659;51.470;6.770;2023-01-16T06:14:26;98766.63;;;5.08;86.82
3294;BME280;1659;51.470;6.770;2023-01-16T06:16:52;98761.41;;;5.08;87.27
3294;BME280;1659;51.470;6.770;2023-01-16T06:19:20;98748.22;;;5.11;86.87
3294;BME280;1659;51.470;6.770;2023-01-16T06:21:47;98747.34;;;5.12;86.66
3294;BME280;1659;51.470;6.770;2023-01-16T06:24:13;98741.19;;;5.13;86.56
3294;BME280;1659;51.470;6.770;2023-01-16T06:26:40;98724.53;;;5.16;86.24
3294;BME280;1659;51.470;6.770;2023-01-16T06:29:08;98721.00;;;5.17;86.29
3294;BME280;1659;51.470;6.770;2023-01-16T06:31:35;98716.56;;;5.19;86.06
3294;BME280;1659;51.470;6.770;2023-01-16T06:34:02;98708.69;;;5.20;86.07
3294;BME280;1659;51.470;6.770;2023-01-16T06:36:30;98707.84;;;5.20;85.70
3294;BME280;1659;51.470;6.770;2023-01-16T06:38:56;98692.97;;;5.20;85.87
3294;BME280;1659;51.470;6.770;2023-01-16T06:41:23;98685.06;;;5.22;85.48
3294;BME280;1659;51.470;6.770;2023-01-16T06:43:49;98680.66;;;5.24;85.05
3294;BME280;1659;51.470;6.770;2023-01-16T06:46:18;98680.56;;;5.27;84.41
3294;BME280;1659;51.470;6.770;2023-01-16T06:48:45;98673.50;;;5.29;84.74
3294;BME280;1659;51.470;6.770;2023-01-16T06:51:11;98666.41;;;5.33;84.30
3294;BME280;1659;51.470;6.770;2023-01-16T06:53:39;98655.03;;;5.34;84.30
3294;BME280;1659;51.470;6.770;2023-01-16T06:56:06;98648.88;;;5.35;84.48
3294;BME280;1659;51.470;6.770;2023-01-16T06:58:33;98652.38;;;5.35;83.62
3294;BME280;1659;51.470;6.770;2023-01-16T07:00:59;98641.94;;;5.34;83.95
3294;BME280;1659;51.470;6.770;2023-01-16T07:03:26;98641.91;;;5.35;84.29
3294;BME280;1659;51.470;6.770;2023-01-16T07:05:52;98628.75;;;5.37;83.97
3294;BME280;1659;51.470;6.770;2023-01-16T07:08:19;98626.09;;;5.38;83.73
3294;BME280;1659;51.470;6.770;2023-01-16T07:10:46;98622.47;;;5.42;83.76
3294;BME280;1659;51.470;6.770;2023-01-16T07:13:13;98617.13;;;5.45;83.14
3294;BME280;1659;51.470;6.770;2023-01-16T07:15:41;98610.97;;;5.46;83.22
3294;BME280;1659;51.470;6.770;2023-01-16T07:18:28;98599.69;;;5.44;83.23
3294;BME280;1659;51.470;6.770;2023-01-16T07:21:12;98601.75;;;5.35;82.97
3294;BME280;1659;51.470;6.770;2023-01-16T07:24:07;98601.19;;;5.25;83.57
3294;BME280;1659;51.470;6.770;2023-01-16T07:26:37;98585.75;;;5.17;84.24
3294;BME280;1659;51.470;6.770;2023-01-16T07:29:05;98573.75;;;5.10;85.09
3294;BME280;1659;51.470;6.770;2023-01-16T07:31:32;98566.13;;;5.02;85.24
3294;BME280;1659;51.470;6.770;2023-01-16T07:34:00;98560.19;;;4.97;85.77
3294;BME280;1659;51.470;6.770;2023-01-16T07:36:26;98549.00;;;4.92;86.06
3294;BME280;1659;51.470;6.770;2023-01-16T07:38:53;98545.72;;;4.85;86.32
3294;BME280;1659;51.470;6.770;2023-01-16T07:41:19;98529.25;;;4.82;86.86
3294;BME280;1659;51.470;6.770;2023-01-16T07:43:47;98526.81;;;4.77;87.54
3294;BME280;1659;51.470;6.770;2023-01-16T07:46:14;98511.25;;;4.72;87.95
3294;BME280;1659;51.470;6.770;2023-01-16T07:48:40;98507.03;;;4.68;88.39
3294;BME280;1659;51.470;6.770;2023-01-16T07:51:07;98503.66;;;4.65;88.77
3294;BME280;1659;51.470;6.770;2023-01-16T07:53:33;98462.84;;;4.59;88.88
3294;BME280;1659;51.470;6.770;2023-01-16T07:56:02;98452.53;;;4.54;88.99
3294;BME280;1659;51.470;6.770;2023-01-16T07:58:29;98436.09;;;4.51;89.42
3294;BME280;1659;51.470;6.770;2023-01-16T08:00:57;98436.09;;;4.51;89.83
3294;BME280;1659;51.470;6.770;2023-01-16T08:03:24;98442.97;;;4.53;89.82
3294;BME280;1659;51.470;6.770;2023-01-16T08:05:54;98419.44;;;4.53;89.86
3294;BME280;1659;51.470;6.770;2023-01-16T08:08:21;98388.09;;;4.52;90.41
3294;BME280;1659;51.470;6.770;2023-01-16T08:10:52;98399.41;;;4.52;90.13
3294;BME280;1659;51.470;6.770;2023-01-16T08:13:19;98400.28;;;4.53;90.28
3294;BME280;1659;51.470;6.770;2023-01-16T08:15:45;98397.56;;;4.56;90.65
3294;BME280;1659;51.470;6.770;2023-01-16T08:18:13;98392.25;;;4.58;90.29
3294;BME280;1659;51.470;6.770;2023-01-16T08:20:40;98386.09;;;4.60;90.66
3294;BME280;1659;51.470;6.770;2023-01-16T08:23:07;98390.34;;;4.63;90.26
3294;BME280;1659;51.470;6.770;2023-01-16T08:25:34;98373.72;;;4.65;90.27
3294;BME280;1659;51.470;6.770;2023-01-16T08:28:01;98389.31;;;4.68;90.40
3294;BME280;1659;51.470;6.770;2023-01-16T08:30:27;98354.34;;;4.71;89.33
3294;BME280;1659;51.470;6.770;2023-01-16T08:32:57;98353.41;;;4.73;89.77
3294;BME280;1659;51.470;6.770;2023-01-16T08:35:25;98341.97;;;4.76;89.67
3294;BME280;1659;51.470;6.770;2023-01-16T08:37:51;98327.09;;;4.77;89.64
3294;BME280;1659;51.470;6.770;2023-01-16T08:40:18;98324.44;;;4.78;90.62
3294;BME280;1659;51.470;6.770;2023-01-16T08:42:46;98333.00;;;4.83;89.67
3294;BME280;1659;51.470;6.770;2023-01-16T08:45:30;98319.75;;;4.88;89.79
3294;BME280;1659;51.470;6.770;2023-01-16T08:48:19;98315.09;;;4.96;89.12
3294;BME280;1659;51.470;6.770;2023-01-16T08:51:14;98294.06;;;4.99;89.05
3294;BME280;1659;51.470;6.770;2023-01-16T08:53:51;98306.19;;;5.02;89.33
3294;BME280;1659;51.470;6.770;2023-01-16T08:56:18;98292.13;;;5.04;89.02
3294;BME280;1659;51.470;6.770;2023-01-16T08:58:45;98292.91;;;5.06;88.96
3294;BME280;1659;51.470;6.770;2023-01-16T09:01:11;98280.72;;;5.07;87.54
3294;BME280;1659;51.470;6.770;2023-01-16T09:03:38;98285.25;;;5.02;88.20
3294;BME280;1659;51.470;6.770;2023-01-16T09:06:05;98287.09;;;5.00;87.55
3294;BME280;1659;51.470;6.770;2023-01-16T09:08:34;98283.69;;;4.96;87.47
3294;BME280;1659;51.470;6.770;2023-01-16T09:11:00;98296.09;;;4.91;88.41
3294;BME280;1659;51.470;6.770;2023-01-16T09:13:44;98258.72;;;4.87;88.31
3294;BME280;1659;51.470;6.770;2023-01-16T09:16:17;98267.44;;;4.88;88.62
3294;BME280;1659;51.470;6.770;2023-01-16T09:18:44;98266.56;;;4.87;88.74
3294;BME280;1659;51.470;6.770;2023-01-16T09:21:11;98262.25;;;4.86;88.42
3294;BME280;1659;51.470;6.770;2023-01-16T09:23:39;98263.19;;;4.84;88.77
3294;BME280;1659;51.470;6.770;2023-01-16T09:26:06;98256.38;;;4.80;88.47
3294;BME280;1659;51.470;6.770;2023-01-16T09:28:33;98266.25;;;4.71;88.81
3294;BME280;1659;51.470;6.770;2023-01-16T09:30:59;98252.47;;;4.66;89.06
3294;BME280;1659;51.470;6.770;2023-01-16T09:33:26;98264.81;;;4.63;89.78
3294;BME280;1659;51.470;6.770;2023-01-16T09:35:53;98242.25;;;4.60;89.60
3294;BME280;1659;51.470;6.770;2023-01-16T09:38:19;98240.53;;;4.59;89.79
3294;BME280;1659;51.470;6.770;2023-01-16T09:40:51;98227.44;;;4.59;90.10
3294;BME280;1659;51.470;6.770;2023-01-16T09:43:31;98225.63;;;4.61;89.85
3294;BME280;1659;51.470;6.770;2023-01-16T09:46:03;98216.78;;;4.65;89.80
3294;BME280;1659;51.470;6.770;2023-01-16T09:48:32;98221.97;;;4.67;89.72
3294;BME280;1659;51.470;6.770;2023-01-16T09:51:02;98246.34;;;4.67;90.06
3294;BME280;1659;51.470;6.770;2023-01-16T09:53:37;98224.44;;;4.70;89.60
3294;BME280;1659;51.470;6.770;2023-01-16T09:56:28;98206.22;;;4.68;89.59
3294;BME280;1659;51.470;6.770;2023-01-16T09:59:23;98215.72;;;4.71;89.88
3294;BME280;1659;51.470;6.770;2023-01-16T10:01:54;98212.16;;;4.73;89.45
3294;BME280;1659;51.470;6.770;2023-01-16T10:04:23;98219.91;;;4.75;89.52
3294;BME280;1659;51.470;6.770;2023-01-16T10:06:58;98187.50;;;4.79;88.95
3294;BME280;1659;51.470;6.770;2023-01-16T10:09:35;98203.16;;;4.81;89.01
3294;BME280;1659;51.470;6.770;2023-01-16T10:12:09;98190.88;;;4.83;88.66
3294;BME280;1659;51.470;6.770;2023-01-16T10:14:56;98182.97;;;4.84;88.89
3294;BME280;1659;51.470;6.770;2023-01-16T10:17:33;98158.50;;;4.85;88.89
3294;BME280;1659;51.470;6.770;2023-01-16T10:20:30;98184.59;;;4.87;88.72
3294;BME280;1659;51.470;6.770;2023-01-16T10:23:11;98173.28;;;4.86;89.11
3294;BME280;1659;51.470;6.770;2023-01-16T10:25:46;98168.97;;;4.85;88.77
3294;BME280;1659;51.470;6.770;2023-01-16T10:28:26;98142.84;;;4.84;89.48
3294;BME280;1659;51.470;6.770;2023-01-16T10:30:58;98151.56;;;4.84;89.08
3294;BME280;1659;51.470;6.770;2023-01-16T10:33:29;98155.03;;;4.85;88.99
3294;BME280;1659;51.470;6.770;2023-01-16T10:35:59;98139.38;;;4.83;88.54
3294;BME280;1659;51.470;6.770;2023-01-16T10:38:33;98127.16;;;4.84;89.00
3294;BME280;1659;51.470;6.770;2023-01-16T10:41:13;98116.69;;;4.84;88.92
3294;BME280;1659;51.470;6.770;2023-01-16T10:43:58;98111.41;;;4.85;89.04
3294;BME280;1659;51.470;6.770;2023-01-16T10:46:43;98114.81;;;4.87;88.68
3294;BME280;1659;51.470;6.770;2023-01-16T10:49:27;98107.56;;;4.94;88.89
3294;BME280;1659;51.470;6.770;2023-01-16T10:51:55;98100.28;;;5.02;88.10
3294;BME280;1659;51.470;6.770;2023-01-16T10:54:23;98093.97;;;5.08;87.72
3294;BME280;1659;51.470;6.770;2023-01-16T10:56:50;98088.56;;;5.13;87.39
3294;BME280;1659;51.470;6.770;2023-01-16T10:59:18;98092.75;;;5.17;87.50
3294;BME280;1659;51.470;6.770;2023-01-16T11:01:47;98075.88;;;5.24;86.18
3294;BME280;1659;51.470;6.770;2023-01-16T11:04:18;98073.88;;;5.30;85.42
3294;BME280;1659;51.470;6.770;2023-01-16T11:06:45;98072.75;;;5.36;84.58
3294;BME280;1659;51.470;6.770;2023-01-16T11:09:18;98062.88;;;5.43;83.88
3294;BME280;1659;51.470;6.770;2023-01-16T11:11:49;98064.47;;;5.47;84.32
3294;BME280;1659;51.470;6.770;2023-01-16T11:14:37;98052.91;;;5.53;84.04
3294;BME280;1659;51.470;6.770;2023-01-16T11:17:25;98042.09;;;5.60;83.95
3294;BME280;1659;51.470;6.770;2023-01-16T11:20:13;98045.22;;;5.68;83.91
3294;BME280;1659;51.470;6.770;2023-01-16T11:22:40;98029.16;;;5.76;83.11
3294;BME280;1659;51.470;6.770;2023-01-16T11:25:14;98037.69;;;5.81;82.61
3294;BME280;1659;51.470;6.770;2023-01-16T11:27:43;98020.94;;;5.85;81.92
3294;BME280;1659;51.470;6.770;2023-01-16T11:30:16;98012.19;;;5.85;81.39
3294;BME280;1659;51.470;6.770;2023-01-16T11:32:45;98003.38;;;5.88;81.68
3294;BME280;1659;51.470;6.770;2023-01-16T11:35:15;97989.25;;;5.90;81.89
3294;BME280;1659;51.470;6.770;2023-01-16T11:37:43;98000.47;;;5.94;81.34
3294;BME280;1659;51.470;6.770;2023-01-16T11:40:19;98000.47;;;5.94;80.72
3294;BME280;1659;51.470;6.770;2023-01-16T11:42:53;97988.22;;;5.94;80.08
3294;BME280;1659;51.470;6.770;2023-01-16T11:45:44;97979.50;;;5.94;79.91
3294;BME280;1659;51.470;6.770;2023-01-16T11:48:39;97982.94;;;5.96;79.85
3294;BME280;1659;51.470;6.770;2023-01-16T11:51:12;97995.97;;;5.97;79.68
3294;BME280;1659;51.470;6.770;2023-01-16T11:53:39;97946.97;;;5.99;80.35
3294;BME280;1659;51.470;6.770;2023-01-16T11:56:31;97954.66;;;6.02;80.61
3294;BME280;1659;51.470;6.770;2023-01-16T11:59:16;97951.91;;;6.05;79.67
3294;BME280;1659;51.470;6.770;2023-01-16T12:01:55;97934.41;;;6.06;78.51
3294;BME280;1659;51.470;6.770;2023-01-16T12:04:49;97944.00;;;6.07;78.75
3294;BME280;1659;51.470;6.770;2023-01-16T12:07:39;97920.03;;;6.15;78.34
3294;BME280;1659;51.470;6.770;2023-01-16T12:10:15;97909.84;;;6.28;77.85
3294;BME280;1659;51.470;6.770;2023-01-16T12:12:51;97902.59;;;6.33;78.44
3294;BME280;1659;51.470;6.770;2023-01-16T12:15:40;97904.22;;;6.35;77.88
3294;BME280;1659;51.470;6.770;2023-01-16T12:18:18;97891.31;;;6.31;77.64
3294;BME280;1659;51.470;6.770;2023-01-16T12:20:52;97893.34;;;6.26;77.68
3294;BME280;1659;51.470;6.770;2023-01-16T12:23:31;97877.81;;;6.21;77.49
3294;BME280;1659;51.470;6.770;2023-01-16T12:26:10;97874.56;;;6.16;78.27
3294;BME280;1659;51.470;6.770;2023-01-16T12:28:43;97876.47;;;6.12;78.75
3294;BME280;1659;51.470;6.770;2023-01-16T12:31:24;97866.97;;;6.10;78.79
3294;BME280;1659;51.470;6.770;2023-01-16T12:34:14;97863.50;;;6.09;78.65
3294;BME280;1659;51.470;6.770;2023-01-16T12:36:55;97860.94;;;6.08;78.32
3294;BME280;1659;51.470;6.770;2023-01-16T12:39:30;97847.00;;;6.07;78.10
3294;BME280;1659;51.470;6.770;2023-01-16T12:42:06;97859.28;;;6.07;78.07
3294;BME280;1659;51.470;6.770;2023-01-16T12:45:15;97834.88;;;6.04;78.32
3294;BME280;1659;51.470;6.770;2023-01-16T12:47:54;97836.38;;;5.91;79.28
3294;BME280;1659;51.470;6.770;2023-01-16T12:50:38;97831.69;;;5.79;80.05
3294;BME280;1659;51.470;6.770;2023-01-16T12:53:22;97817.97;;;5.74;80.66
3294;BME280;1659;51.470;6.770;2023-01-16T12:55:57;97802.44;;;5.69;81.17
3294;BME280;1659;51.470;6.770;2023-01-16T12:58:29;97801.53;;;5.70;81.41
3294;BME280;1659;51.470;6.770;2023-01-16T13:01:06;97800.59;;;5.71;81.27
3294;BME280;1659;51.470;6.770;2023-01-16T13:03:37;97784.41;;;5.63;81.12
3294;BME280;1659;51.470;6.770;2023-01-16T13:06:10;97793.31;;;5.59;81.73
3294;BME280;1659;51.470;6.770;2023-01-16T13:08:40;97789.16;;;5.55;81.62
3294;BME280;1659;51.470;6.770;2023-01-16T13:11:11;97783.28;;;5.49;82.42
3294;BME280;1659;51.470;6.770;2023-01-16T13:14:00;97776.63;;;5.42;82.88
3294;BME280;1659;51.470;6.770;2023-01-16T13:16:30;97779.56;;;5.35;83.05
3294;BME280;1659;51.470;6.770;2023-01-16T13:19:00;97775.53;;;5.27;84.33
3294;BME280;1659;51.470;6.770;2023-01-16T13:21:33;97765.56;;;5.17;85.23
3294;BME280;1659;51.470;6.770;2023-01-16T13:24:07;97757.00;;;5.13;85.42
3294;BME280;1659;51.470;6.770;2023-01-16T13:26:37;97751.00;;;5.11;85.93
3294;BME280;1659;51.470;6.770;2023-01-16T13:29:09;97742.31;;;5.10;85.89
3294;BME280;1659;51.470;6.770;2023-01-16T13:31:39;97750.00;;;5.14;85.81
3294;BME280;1659;51.470;6.770;2023-01-16T13:34:12;97751.56;;;5.18;86.15
3294;BME280;1659;51.470;6.770;2023-01-16T13:37:28;97742.59;;;5.23;85.81
3294;BME280;1659;51.470;6.770;2023-01-16T13:40:07;97733.53;;;5.30;85.14
3294;BME280;1659;51.470;6.770;2023-01-16T13:42:40;97728.94;;;5.36;85.63
3294;BME280;1659;51.470;6.770;2023-01-16T13:45:17;97743.56;;;5.40;86.00
3294;BME280;1659;51.470;6.770;2023-01-16T13:48:02;97716.28;;;5.45;85.48
3294;BME280;1659;51.470;6.770;2023-01-16T13:50:30;97726.50;;;5.50;85.23
3294;BME280;1659;51.470;6.770;2023-01-16T13:53:03;97708.16;;;5.50;84.75
3294;BME280;1659;51.470;6.770;2023-01-16T13:55:33;97709.03;;;5.51;84.83
3294;BME280;1659;51.470;6.770;2023-01-16T13:58:14;97712.50;;;5.51;84.81
3294;BME280;1659;51.470;6.770;2023-01-16T14:00:43;97700.50;;;5.47;84.75